sensor_id;sensor_type;location;lat;lon;timestamp;pressure;altitude;pressure_sealevel;temperature;humidity
58690;BME280;44470;53.206;-6.106;2023-03-22T00:01:14;98662.13;;;18.97;58.68
58690;BME280;44470;53.206;-6.106;2023-03-22T00:03:40;98664.78;;;18.97;58.92
58690;BME280;44470;53.206;-6.106;2023-03-22T00:06:06;98661.22;;;18.97;58.92
58690;BME280;44470;53.206;-6.106;2023-03-22T00:08:32;98649.66;;;18.98;58.88
58690;BME280;44470;53.206;-6.106;2023-03-22T00:10:57;98618.59;;;18.97;58.77
58690;BME280;44470;53.206;-6.106;2023-03-22T00:13:24;98615.84;;;18.98;58.95
58690;BME280;44470;53.206;-6.106;2023-03-22T00:15:50;98649.66;;;18.98;59.00
58690;BME280;44470;53.206;-6.106;2023-03-22T00:18:16;98639.00;;;18.98;59.19
58690;BME280;44470;53.206;-6.106;2023-03-22T00:20:48;98656.78;;;18.97;58.86
58690;BME280;44470;53.206;-6.106;2023-03-22T00:23:14;98652.31;;;18.98;58.88
58690;BME280;44470;53.206;-6.106;2023-03-22T00:25:39;98639.91;;;18.97;58.63
58690;BME280;44470;53.206;-6.106;2023-03-22T00:28:05;98653.28;;;18.95;58.77
58690;BME280;44470;53.206;-6.106;2023-03-22T00:30:30;98661.28;;;18.95;58.70
58690;BME280;44470;53.206;-6.106;2023-03-22T00:32:56;98669.22;;;18.97;59.02
58690;BME280;44470;53.206;-6.106;2023-03-22T00:35:21;98683.44;;;18.97;58.90
58690;BME280;44470;53.206;-6.106;2023-03-22T00:37:47;98671.03;;;18.96;58.93
58690;BME280;44470;53.206;-6.106;2023-03-22T00:40:15;98672.91;;;18.94;58.63
58690;BME280;44470;53.206;-6.106;2023-03-22T00:42:41;98684.34;;;18.96;58.75
58690;BME280;44470;53.206;-6.106;2023-03-22T00:45:07;98687.88;;;18.97;58.67
58690;BME280;44470;53.206;-6.106;2023-03-22T00:47:33;98687.00;;;18.96;58.77
58690;BME280;44470;53.206;-6.106;2023-03-22T00:49:59;98680.84;;;18.96;58.77
58690;BME280;44470;53.206;-6.106;2023-03-22T00:52:25;98678.22;;;18.94;58.87
58690;BME280;44470;53.206;-6.106;2023-03-22T00:54:51;98705.66;;;18.96;58.72
58690;BME280;44470;53.206;-6.106;2023-03-22T00:57:17;98706.59;;;18.95;58.79
58690;BME280;44470;53.206;-6.106;2023-03-22T00:59:43;98717.28;;;18.95;58.71
58690;BME280;44470;53.206;-6.106;2023-03-22T01:02:09;98741.25;;;18.95;59.14
58690;BME280;44470;53.206;-6.106;2023-03-22T01:04:38;98767.91;;;18.95;58.79
58690;BME280;44470;53.206;-6.106;2023-03-22T01:07:04;98767.91;;;18.95;58.82
58690;BME280;44470;53.206;-6.106;2023-03-22T01:09:34;98781.25;;;18.95;59.03
58690;BME280;44470;53.206;-6.106;2023-03-22T01:12:00;98770.59;;;18.95;58.99
58690;BME280;44470;53.206;-6.106;2023-03-22T01:14:26;98782.19;;;18.94;58.81
58690;BME280;44470;53.206;-6.106;2023-03-22T01:16:52;98790.19;;;18.94;58.81
58690;BME280;44470;53.206;-6.106;2023-03-22T01:19:22;98800.84;;;18.94;58.80
58690;BME280;44470;53.206;-6.106;2023-03-22T01:21:47;98804.44;;;18.93;58.51
58690;BME280;44470;53.206;-6.106;2023-03-22T01:24:13;98800.84;;;18.94;58.49
58690;BME280;44470;53.206;-6.106;2023-03-22T01:26:38;98812.53;;;18.92;58.61
58690;BME280;44470;53.206;-6.106;2023-03-22T01:29:04;98807.22;;;18.92;58.59
58690;BME280;44470;53.206;-6.106;2023-03-22T01:31:29;98821.38;;;18.92;58.57
58690;BME280;44470;53.206;-6.106;2023-03-22T01:33:55;98810.72;;;18.92;58.43
58690;BME280;44470;53.206;-6.106;2023-03-22T01:36:21;98821.31;;;18.94;58.67
58690;BME280;44470;53.206;-6.106;2023-03-22T01:38:47;98837.38;;;18.92;58.55
58690;BME280;44470;53.206;-6.106;2023-03-22T01:41:14;98832.84;;;18.94;58.40
58690;BME280;44470;53.206;-6.106;2023-03-22T01:43:41;98842.72;;;18.92;58.28
58690;BME280;44470;53.206;-6.106;2023-03-22T01:46:06;98849.84;;;18.92;58.34
58690;BME280;44470;53.206;-6.106;2023-03-22T01:48:33;98854.31;;;18.91;58.24
58690;BME280;44470;53.206;-6.106;2023-03-22T01:53:42;98858.78;;;18.91;58.35
58690;BME280;44470;53.206;-6.106;2023-03-22T01:56:08;98871.19;;;18.92;58.12
58690;BME280;44470;53.206;-6.106;2023-03-22T01:58:35;98875.63;;;18.91;57.99
58690;BME280;44470;53.206;-6.106;2023-03-22T02:01:03;98872.16;;;18.89;58.15
58690;BME280;44470;53.206;-6.106;2023-03-22T02:03:57;98892.56;;;18.90;58.08
58690;BME280;44470;53.206;-6.106;2023-03-22T02:06:25;98911.22;;;18.90;57.69
58690;BME280;44470;53.206;-6.106;2023-03-22T02:09:00;98912.94;;;18.91;57.81
58690;BME280;44470;53.206;-6.106;2023-03-22T02:11:28;98920.00;;;18.92;57.92
58690;BME280;44470;53.206;-6.106;2023-03-22T02:17:04;98930.75;;;18.91;57.90
58690;BME280;44470;53.206;-6.106;2023-03-22T02:29:45;98905.97;;;18.88;57.74
58690;BME280;44470;53.206;-6.106;2023-03-22T02:32:21;98919.31;;;18.88;
58690;BME280;44470;53.206;-6.106;2023-03-22T02:40:13;98936.16;;;18.89;57.50
58690;BME280;44470;53.206;-6.106;2023-03-22T02:45:30;98953.06;;;18.88;57.21
58690;BME280;44470;53.206;-6.106;2023-03-22T02:48:05;98966.41;;;18.88;57.04
58690;BME280;44470;53.206;-6.106;2023-03-22T02:50:44;98972.66;;;18.87;56.94
58690;BME280;44470;53.206;-6.106;2023-03-22T02:53:21;98986.00;;;18.87;57.02
58690;BME280;44470;53.206;-6.106;2023-03-22T02:56:01;98986.88;;;18.87;57.07
58690;BME280;44470;53.206;-6.106;2023-03-22T02:58:33;98979.72;;;18.88;56.99
58690;BME280;44470;53.206;-6.106;2023-03-22T03:01:02;98986.88;;;18.87;57.07
58690;BME280;44470;53.206;-6.106;2023-03-22T03:03:32;98983.31;;;18.87;56.66
58690;BME280;44470;53.206;-6.106;2023-03-22T03:06:05;98996.66;;;18.87;56.71
58690;BME280;44470;53.206;-6.106;2023-03-22T03:08:36;98986.00;;;18.87;56.80
58690;BME280;44470;53.206;-6.106;2023-03-22T03:11:02;99002.91;;;18.86;56.83
58690;BME280;44470;53.206;-6.106;2023-03-22T03:13:28;99008.25;;;18.86;56.64
58690;BME280;44470;53.206;-6.106;2023-03-22T03:15:56;99016.25;;;18.86;56.85
58690;BME280;44470;53.206;-6.106;2023-03-22T03:18:46;99030.38;;;18.88;56.76
58690;BME280;44470;53.206;-6.106;2023-03-22T03:29:02;99042.91;;;18.86;56.66
58690;BME280;44470;53.206;-6.106;2023-03-22T03:31:37;99050.97;;;18.84;56.77
58690;BME280;44470;53.206;-6.106;2023-03-22T03:34:28;99058.91;;;18.86;56.55
58690;BME280;44470;53.206;-6.106;2023-03-22T03:37:08;99055.28;;;18.87;56.43
58690;BME280;44470;53.206;-6.106;2023-03-22T03:39:38;99067.78;;;18.86;56.62
58690;BME280;44470;53.206;-6.106;2023-03-22T03:42:06;99074.03;;;18.85;56.66
58690;BME280;44470;53.206;-6.106;2023-03-22T03:44:35;99073.16;;;18.85;57.07
58690;BME280;44470;53.206;-6.106;2023-03-22T03:47:02;99078.47;;;18.85;56.88
58690;BME280;44470;53.206;-6.106;2023-03-22T03:49:29;99080.31;;;18.84;56.69
58690;BME280;44470;53.206;-6.106;2023-03-22T03:51:54;99087.41;;;18.84;56.80
58690;BME280;44470;53.206;-6.106;2023-03-22T03:54:21;99092.75;;;18.84;56.54
58690;BME280;44470;53.206;-6.106;2023-03-22T03:56:47;99098.06;;;18.84;57.12
58690;BME280;44470;53.206;-6.106;2023-03-22T03:59:14;99101.66;;;18.83;56.90
58690;BME280;44470;53.206;-6.106;2023-03-22T04:01:40;99106.06;;;18.84;56.67
58690;BME280;44470;53.206;-6.106;2023-03-22T04:04:13;99109.66;;;18.83;57.08
58690;BME280;44470;53.206;-6.106;2023-03-22T04:06:48;99107.00;;;18.83;56.91
58690;BME280;44470;53.206;-6.106;2023-03-22T04:09:21;99127.41;;;18.84;56.47
58690;BME280;44470;53.206;-6.106;2023-03-22T04:11:52;99119.41;;;18.84;56.88
58690;BME280;44470;53.206;-6.106;2023-03-22T04:14:21;99113.13;;;18.85;56.77
58690;BME280;44470;53.206;-6.106;2023-03-22T04:16:49;99128.19;;;18.86;56.81
58690;BME280;44470;53.206;-6.106;2023-03-22T04:19:18;99130.94;;;18.84;56.62
58690;BME280;44470;53.206;-6.106;2023-03-22T04:21:43;99138.00;;;18.85;56.33
58690;BME280;44470;53.206;-6.106;2023-03-22T04:24:10;99137.00;;;18.88;56.15
58690;BME280;44470;53.206;-6.106;2023-03-22T04:26:39;99138.00;;;18.85;56.17
58690;BME280;44470;53.206;-6.106;2023-03-22T04:29:26;99149.47;;;18.87;56.09
58690;BME280;44470;53.206;-6.106;2023-03-22T04:32:05;99144.06;;;18.89;56.57
58690;BME280;44470;53.206;-6.106;2023-03-22T04:34:40;99144.94;;;18.90;56.52
58690;BME280;44470;53.206;-6.106;2023-03-22T04:37:11;99152.06;;;18.89;56.45
58690;BME280;44470;53.206;-6.106;2023-03-22T04:40:03;99143.13;;;18.90;56.54
58690;BME280;44470;53.206;-6.106;2023-03-22T04:42:44;99152.00;;;18.91;56.19
58690;BME280;44470;53.206;-6.106;2023-03-22T04:45:14;99152.88;;;18.91;56.43
58690;BME280;44470;53.206;-6.106;2023-03-22T04:47:42;99156.41;;;18.92;56.32
58690;BME280;44470;53.206;-6.106;2023-03-22T04:50:09;99156.41;;;18.92;56.50
58690;BME280;44470;53.206;-6.106;2023-03-22T04:52:43;99164.34;;;18.93;55.72
58690;BME280;44470;53.206;-6.106;2023-03-22T04:55:09;99160.88;;;18.91;56.29
58690;BME280;44470;53.206;-6.106;2023-03-22T04:57:35;99177.75;;;18.92;56.27
58690;BME280;44470;53.206;-6.106;2023-03-22T05:00:00;99165.22;;;18.94;56.29
58690;BME280;44470;53.206;-6.106;2023-03-22T05:02:26;99174.06;;;18.94;56.38
58690;BME280;44470;53.206;-6.106;2023-03-22T05:04:52;99176.69;;;18.96;56.08
58690;BME280;44470;53.206;-6.106;2023-03-22T05:07:30;99175.81;;;18.95;55.94
58690;BME280;44470;53.206;-6.106;2023-03-22T05:09:57;99176.63;;;18.97;56.23
58690;BME280;44470;53.206;-6.106;2023-03-22T05:12:23;99176.69;;;18.96;56.43
58690;BME280;44470;53.206;-6.106;2023-03-22T05:14:51;99183.72;;;18.98;56.12
58690;BME280;44470;53.206;-6.106;2023-03-22T05:17:21;99193.44;;;18.99;55.90
58690;BME280;44470;53.206;-6.106;2023-03-22T05:19:49;99182.78;;;18.99;55.91
58690;BME280;44470;53.206;-6.106;2023-03-22T05:22:16;99188.09;;;18.99;56.03
58690;BME280;44470;53.206;-6.106;2023-03-22T05:24:46;99195.19;;;19.00;56.18
58690;BME280;44470;53.206;-6.106;2023-03-22T05:27:17;99207.56;;;19.01;55.82
58690;BME280;44470;53.206;-6.106;2023-03-22T05:29:57;99199.59;;;19.01;55.97
58690;BME280;44470;53.206;-6.106;2023-03-22T05:32:32;99211.94;;;19.04;56.13
58690;BME280;44470;53.206;-6.106;2023-03-22T05:34:57;99209.19;;;19.06;56.05
58690;BME280;44470;53.206;-6.106;2023-03-22T05:37:33;99225.19;;;19.06;55.99
58690;BME280;44470;53.206;-6.106;2023-03-22T05:40:02;99223.31;;;19.08;55.69
58690;BME280;44470;53.206;-6.106;2023-03-22T05:42:35;99220.75;;;19.06;56.09
58690;BME280;44470;53.206;-6.106;2023-03-22T05:45:10;99224.22;;;19.08;55.95
58690;BME280;44470;53.206;-6.106;2023-03-22T05:47:36;99230.41;;;19.09;56.00
58690;BME280;44470;53.206;-6.106;2023-03-22T05:50:12;99219.72;;;19.09;55.65
58690;BME280;44470;53.206;-6.106;2023-03-22T05:52:38;99216.09;;;19.11;55.70
58690;BME280;44470;53.206;-6.106;2023-03-22T05:55:22;99213.41;;;19.11;55.71
58690;BME280;44470;53.206;-6.106;2023-03-22T05:57:51;99228.50;;;19.12;55.44
58690;BME280;44470;53.206;-6.106;2023-03-22T06:00:19;99217.78;;;19.14;55.47
58690;BME280;44470;53.206;-6.106;2023-03-22T06:03:15;99217.78;;;19.14;55.02
58690;BME280;44470;53.206;-6.106;2023-03-22T06:05:43;99208.03;;;19.13;55.38
58690;BME280;44470;53.206;-6.106;2023-03-22T06:08:09;99212.31;;;19.17;55.06
58690;BME280;44470;53.206;-6.106;2023-03-22T06:10:34;99198.97;;;19.17;55.40
58690;BME280;44470;53.206;-6.106;2023-03-22T06:13:00;99206.03;;;19.18;55.23
58690;BME280;44470;53.206;-6.106;2023-03-22T06:15:28;99207.69;;;19.21;54.93
58690;BME280;44470;53.206;-6.106;2023-03-22T06:18:06;99201.50;;;19.20;55.25
58690;BME280;44470;53.206;-6.106;2023-03-22T06:20:38;99202.44;;;19.19;55.20
58690;BME280;44470;53.206;-6.106;2023-03-22T06:23:09;99204.22;;;19.19;55.49
58690;BME280;44470;53.206;-6.106;2023-03-22T06:25:37;99203.25;;;19.21;55.12
58690;BME280;44470;53.206;-6.106;2023-03-22T06:28:03;99193.44;;;19.22;55.07
58690;BME280;44470;53.206;-6.106;2023-03-22T06:30:30;99197.91;;;19.21;55.35
58690;BME280;44470;53.206;-6.106;2023-03-22T06:33:21;99204.06;;;19.23;55.27
58690;BME280;44470;53.206;-6.106;2023-03-22T06:35:52;99206.72;;;19.23;55.20
58690;BME280;44470;53.206;-6.106;2023-03-22T06:38:26;99204.06;;;19.23;55.04
58690;BME280;44470;53.206;-6.106;2023-03-22T06:40:52;99210.31;;;19.22;55.00
58690;BME280;44470;53.206;-6.106;2023-03-22T06:43:18;99212.84;;;19.25;54.79
58690;BME280;44470;53.206;-6.106;2023-03-22T06:45:46;99221.66;;;19.27;54.94
58690;BME280;44470;53.206;-6.106;2023-03-22T06:48:12;99206.50;;;19.28;55.00
58690;BME280;44470;53.206;-6.106;2023-03-22T06:50:48;99212.78;;;19.27;55.12
58690;BME280;44470;53.206;-6.106;2023-03-22T06:53:21;99208.25;;;19.29;54.81
58690;BME280;44470;53.206;-6.106;2023-03-22T06:55:47;99202.88;;;19.30;54.52
58690;BME280;44470;53.206;-6.106;2023-03-22T06:58:17;99202.88;;;19.30;54.69
58690;BME280;44470;53.206;-6.106;2023-03-22T07:00:42;99203.66;;;19.33;54.51
58690;BME280;44470;53.206;-6.106;2023-03-22T07:03:08;99205.44;;;19.32;54.69
58690;BME280;44470;53.206;-6.106;2023-03-22T07:05:45;99213.44;;;19.32;54.67
58690;BME280;44470;53.206;-6.106;2023-03-22T07:08:11;99205.44;;;19.32;54.87
58690;BME280;44470;53.206;-6.106;2023-03-22T07:10:41;99196.47;;;19.35;54.78
58690;BME280;44470;53.206;-6.106;2023-03-22T07:13:11;99196.50;;;19.33;54.90
58690;BME280;44470;53.206;-6.106;2023-03-22T07:15:36;99188.59;;;19.31;54.79
58690;BME280;44470;53.206;-6.106;2023-03-22T07:18:07;99186.72;;;19.34;54.85
58690;BME280;44470;53.206;-6.106;2023-03-22T07:20:33;99177.78;;;19.35;54.51
58690;BME280;44470;53.206;-6.106;2023-03-22T07:23:03;99178.63;;;19.35;54.54
58690;BME280;44470;53.206;-6.106;2023-03-22T07:25:32;99179.53;;;19.36;54.64
58690;BME280;44470;53.206;-6.106;2023-03-22T07:28:14;99175.94;;;19.37;54.65
58690;BME280;44470;53.206;-6.106;2023-03-22T07:30:40;99179.41;;;19.39;54.66
58690;BME280;44470;53.206;-6.106;2023-03-22T07:33:06;99183.00;;;19.38;54.39
58690;BME280;44470;53.206;-6.106;2023-03-22T07:35:33;99182.94;;;19.39;54.43
58690;BME280;44470;53.206;-6.106;2023-03-22T07:37:59;99165.00;;;19.43;53.97
58690;BME280;44470;53.206;-6.106;2023-03-22T07:40:30;99173.00;;;19.43;53.90
58690;BME280;44470;53.206;-6.106;2023-03-22T07:42:56;99164.94;;;19.44;53.53
58690;BME280;44470;53.206;-6.106;2023-03-22T07:45:55;99165.06;;;19.41;53.73
58690;BME280;44470;53.206;-6.106;2023-03-22T07:48:39;99168.47;;;19.45;53.66
58690;BME280;44470;53.206;-6.106;2023-03-22T07:51:31;99159.66;;;19.43;53.15
58690;BME280;44470;53.206;-6.106;2023-03-22T07:53:57;99172.06;;;19.44;53.02
58690;BME280;44470;53.206;-6.106;2023-03-22T07:56:22;99172.06;;;19.44;53.24
58690;BME280;44470;53.206;-6.106;2023-03-22T07:58:51;99174.69;;;19.45;52.92
58690;BME280;44470;53.206;-6.106;2023-03-22T08:01:17;99176.31;;;19.48;52.78
58690;BME280;44470;53.206;-6.106;2023-03-22T08:04:14;99171.94;;;19.47;52.68
58690;BME280;44470;53.206;-6.106;2023-03-22T08:06:47;99171.88;;;19.49;52.61
58690;BME280;44470;53.206;-6.106;2023-03-22T08:09:14;99187.94;;;19.47;52.98
58690;BME280;44470;53.206;-6.106;2023-03-22T08:11:40;99173.66;;;19.48;52.92
58690;BME280;44470;53.206;-6.106;2023-03-22T08:14:05;99167.34;;;19.51;52.84
58690;BME280;44470;53.206;-6.106;2023-03-22T08:16:37;99162.84;;;19.51;53.23
58690;BME280;44470;53.206;-6.106;2023-03-22T08:19:03;99144.97;;;19.53;53.30
58690;BME280;44470;53.206;-6.106;2023-03-22T08:21:33;99162.81;;;19.53;53.42
58690;BME280;44470;53.206;-6.106;2023-03-22T08:23:59;99162.84;;;19.51;53.54
58690;BME280;44470;53.206;-6.106;2023-03-22T08:26:43;99158.41;;;19.52;53.89
58690;BME280;44470;53.206;-6.106;2023-03-22T08:29:19;99155.59;;;19.55;53.69
58690;BME280;44470;53.206;-6.106;2023-03-22T08:31:48;99153.72;;;19.57;53.63
58690;BME280;44470;53.206;-6.106;2023-03-22T08:34:13;99160.06;;;19.54;53.81
58690;BME280;44470;53.206;-6.106;2023-03-22T08:36:39;99152.03;;;19.54;53.53
58690;BME280;44470;53.206;-6.106;2023-03-22T08:39:05;99157.25;;;19.57;53.54
58690;BME280;44470;53.206;-6.106;2023-03-22T08:41:48;99153.66;;;19.58;53.56
58690;BME280;44470;53.206;-6.106;2023-03-22T08:44:14;99155.47;;;19.58;53.68
58690;BME280;44470;53.206;-6.106;2023-03-22T08:46:39;99147.50;;;19.56;53.52
58690;BME280;44470;53.206;-6.106;2023-03-22T08:49:05;99143.06;;;19.57;53.48
58690;BME280;44470;53.206;-6.106;2023-03-22T08:51:36;99138.56;;;19.57;53.42
58690;BME280;44470;53.206;-6.106;2023-03-22T08:54:10;99145.63;;;19.58;54.08
58690;BME280;44470;53.206;-6.106;2023-03-22T08:56:55;99144.59;;;19.63;54.56
58690;BME280;44470;53.206;-6.106;2023-03-22T08:59:56;99147.13;;;19.66;55.28
58690;BME280;44470;53.206;-6.106;2023-03-22T09:02:46;99151.53;;;19.67;55.58
58690;BME280;44470;53.206;-6.106;2023-03-22T09:05:12;99142.44;;;19.71;55.48
58690;BME280;44470;53.206;-6.106;2023-03-22T09:07:39;99133.66;;;19.69;56.01
58690;BME280;44470;53.206;-6.106;2023-03-22T09:10:23;99131.81;;;19.69;56.07
58690;BME280;44470;53.206;-6.106;2023-03-22T09:12:49;99148.63;;;19.71;56.51
58690;BME280;44470;53.206;-6.106;2023-03-22T09:15:18;99146.06;;;19.70;56.28
58690;BME280;44470;53.206;-6.106;2023-03-22T09:17:47;99134.44;;;19.71;55.86
58690;BME280;44470;53.206;-6.106;2023-03-22T09:20:13;99141.56;;;19.70;55.83
58690;BME280;44470;53.206;-6.106;2023-03-22T09:22:41;99136.31;;;19.69;55.39
58690;BME280;44470;53.206;-6.106;2023-03-22T09:25:08;99132.63;;;19.71;55.63
58690;BME280;44470;53.206;-6.106;2023-03-22T09:27:34;99141.53;;;19.72;55.19
58690;BME280;44470;53.206;-6.106;2023-03-22T09:30:00;99131.78;;;19.71;55.55
58690;BME280;44470;53.206;-6.106;2023-03-22T09:32:29;99133.50;;;19.72;55.24
58690;BME280;44470;53.206;-6.106;2023-03-22T09:34:58;99132.56;;;19.73;55.37
58690;BME280;44470;53.206;-6.106;2023-03-22T09:37:32;99128.03;;;19.75;55.28
58690;BME280;44470;53.206;-6.106;2023-03-22T09:39:59;99132.63;;;19.71;55.08
58690;BME280;44470;53.206;-6.106;2023-03-22T09:45:01;99130.84;;;19.72;55.07
58690;BME280;44470;53.206;-6.106;2023-03-22T09:47:38;99126.44;;;19.71;55.18
58690;BME280;44470;53.206;-6.106;2023-03-22T09:50:13;99129.91;;;19.73;54.70
58690;BME280;44470;53.206;-6.106;2023-03-22T09:52:40;99118.34;;;19.72;55.22
58690;BME280;44470;53.206;-6.106;2023-03-22T09:55:29;99117.50;;;19.72;54.87
58690;BME280;44470;53.206;-6.106;2023-03-22T09:58:01;99125.38;;;19.75;55.17
58690;BME280;44470;53.206;-6.106;2023-03-22T10:08:04;99120.81;;;19.77;55.13
58690;BME280;44470;53.206;-6.106;2023-03-22T10:10:32;99110.19;;;19.75;55.15
58690;BME280;44470;53.206;-6.106;2023-03-22T10:15:48;99116.41;;;19.76;55.38
58690;BME280;44470;53.206;-6.106;2023-03-22T10:18:17;99122.56;;;19.78;54.83
58690;BME280;44470;53.206;-6.106;2023-03-22T10:26:27;99126.03;;;19.80;55.21
58690;BME280;44470;53.206;-6.106;2023-03-22T10:31:42;99126.97;;;19.79;54.97
58690;BME280;44470;53.206;-6.106;2023-03-22T10:36:42;99110.84;;;19.81;54.85
58690;BME280;44470;53.206;-6.106;2023-03-22T10:41:45;99101.19;;;19.78;55.06
58690;BME280;44470;53.206;-6.106;2023-03-22T10:44:14;99088.66;;;19.80;54.82
58690;BME280;44470;53.206;-6.106;2023-03-22T10:46:41;99084.16;;;19.81;55.02
58690;BME280;44470;53.206;-6.106;2023-03-22T10:49:10;99079.69;;;19.81;55.13
58690;BME280;44470;53.206;-6.106;2023-03-22T10:51:46;99085.88;;;19.82;54.95
58690;BME280;44470;53.206;-6.106;2023-03-22T10:54:13;99069.97;;;19.80;55.04
58690;BME280;44470;53.206;-6.106;2023-03-22T10:56:39;99067.28;;;19.80;54.95
58690;BME280;44470;53.206;-6.106;2023-03-22T10:59:05;99055.69;;;19.81;55.01
58690;BME280;44470;53.206;-6.106;2023-03-22T11:01:31;99056.47;;;19.83;54.91
58690;BME280;44470;53.206;-6.106;2023-03-22T11:06:32;99055.59;;;19.83;55.02
58690;BME280;44470;53.206;-6.106;2023-03-22T11:09:15;99062.75;;;19.82;55.17
58690;BME280;44470;53.206;-6.106;2023-03-22T11:11:51;99058.19;;;19.84;54.87
58690;BME280;44470;53.206;-6.106;2023-03-22T11:14:41;99052.88;;;19.84;54.93
58690;BME280;44470;53.206;-6.106;2023-03-22T11:17:11;99057.31;;;19.84;54.92
58690;BME280;44470;53.206;-6.106;2023-03-22T11:19:49;99066.13;;;19.86;54.83
58690;BME280;44470;53.206;-6.106;2023-03-22T11:22:36;99072.50;;;19.83;54.59
58690;BME280;44470;53.206;-6.106;2023-03-22T11:25:06;99062.75;;;19.82;54.78
58690;BME280;44470;53.206;-6.106;2023-03-22T11:27:37;99054.66;;;19.84;54.84
58690;BME280;44470;53.206;-6.106;2023-03-22T11:30:17;99052.88;;;19.84;54.94
58690;BME280;44470;53.206;-6.106;2023-03-22T11:32:44;99055.44;;;19.86;54.79
58690;BME280;44470;53.206;-6.106;2023-03-22T11:35:14;99051.13;;;19.83;54.98
58690;BME280;44470;53.206;-6.106;2023-03-22T11:37:41;99058.19;;;19.84;55.08
58690;BME280;44470;53.206;-6.106;2023-03-22T11:40:12;99061.66;;;19.86;54.81
58690;BME280;44470;53.206;-6.106;2023-03-22T11:42:38;99063.53;;;19.84;54.80
58690;BME280;44470;53.206;-6.106;2023-03-22T11:45:03;99060.72;;;19.87;54.80
58690;BME280;44470;53.206;-6.106;2023-03-22T11:47:33;99066.13;;;19.86;54.88
58690;BME280;44470;53.206;-6.106;2023-03-22T11:50:03;99063.41;;;19.87;54.68
58690;BME280;44470;53.206;-6.106;2023-03-22T11:52:29;99061.41;;;19.93;54.24
58690;BME280;44470;53.206;-6.106;2023-03-22T11:54:54;99054.19;;;19.95;55.04
58690;BME280;44470;53.206;-6.106;2023-03-22T11:57:21;99048.06;;;19.93;54.44
58690;BME280;44470;53.206;-6.106;2023-03-22T11:59:52;99040.63;;;19.99;54.74
58690;BME280;44470;53.206;-6.106;2023-03-22T12:02:27;99035.78;;;20.08;54.53
58690;BME280;44470;53.206;-6.106;2023-03-22T12:04:56;99034.72;;;20.12;54.85
58690;BME280;44470;53.206;-6.106;2023-03-22T12:07:26;99033.03;;;20.09;55.40
58690;BME280;44470;53.206;-6.106;2023-03-22T12:12:21;99012.75;;;20.05;54.70
58690;BME280;44470;53.206;-6.106;2023-03-22T12:14:53;99006.56;;;20.04;55.06
58690;BME280;44470;53.206;-6.106;2023-03-22T12:17:23;98993.41;;;20.00;54.88
58690;BME280;44470;53.206;-6.106;2023-03-22T12:22:31;98998.63;;;20.03;54.63
58690;BME280;44470;53.206;-6.106;2023-03-22T12:24:57;99001.53;;;19.98;55.00
58690;BME280;44470;53.206;-6.106;2023-03-22T12:27:33;99008.50;;;20.01;54.64
58690;BME280;44470;53.206;-6.106;2023-03-22T12:32:33;99016.50;;;20.01;54.37
58690;BME280;44470;53.206;-6.106;2023-03-22T12:35:00;99013.00;;;20.00;54.89
58690;BME280;44470;53.206;-6.106;2023-03-22T12:37:33;99006.72;;;20.01;55.17
58690;BME280;44470;53.206;-6.106;2023-03-22T12:42:50;98996.81;;;20.03;54.94
58690;BME280;44470;53.206;-6.106;2023-03-22T12:45:23;98992.44;;;20.02;54.90
58690;BME280;44470;53.206;-6.106;2023-03-22T12:47:57;98980.88;;;20.02;54.80
58690;BME280;44470;53.206;-6.106;2023-03-22T12:50:27;98969.25;;;20.03;55.06
58690;BME280;44470;53.206;-6.106;2023-03-22T12:52:55;98956.81;;;20.02;55.00
58690;BME280;44470;53.206;-6.106;2023-03-22T12:55:32;98959.34;;;20.05;55.10
58690;BME280;44470;53.206;-6.106;2023-03-22T12:57:59;98964.69;;;20.05;54.92
58690;BME280;44470;53.206;-6.106;2023-03-22T13:00:33;98962.97;;;20.04;54.90
58690;BME280;44470;53.206;-6.106;2023-03-22T13:03:02;98959.34;;;20.05;55.18
58690;BME280;44470;53.206;-6.106;2023-03-22T13:05:31;98952.13;;;20.07;54.82
58690;BME280;44470;53.206;-6.106;2023-03-22T13:07:57;98948.50;;;20.08;54.92
58690;BME280;44470;53.206;-6.106;2023-03-22T13:13:10;98941.44;;;20.07;55.39
58690;BME280;44470;53.206;-6.106;2023-03-22T13:23:33;98916.88;;;20.00;55.32
58690;BME280;44470;53.206;-6.106;2023-03-22T13:26:02;98935.00;;;20.11;55.12
58690;BME280;44470;53.206;-6.106;2023-03-22T13:28:28;98937.69;;;20.11;55.72
58690;BME280;44470;53.206;-6.106;2023-03-22T13:31:01;98932.34;;;20.11;55.80
58690;BME280;44470;53.206;-6.106;2023-03-22T13:33:30;98920.66;;;20.14;55.93
58690;BME280;44470;53.206;-6.106;2023-03-22T13:35:57;98928.59;;;20.15;55.67
58690;BME280;44470;53.206;-6.106;2023-03-22T13:48:30;98926.72;;;20.17;55.53
58690;BME280;44470;53.206;-6.106;2023-03-22T13:51:10;98913.28;;;20.19;55.73
58690;BME280;44470;53.206;-6.106;2023-03-22T13:53:39;98907.09;;;20.18;55.96
58690;BME280;44470;53.206;-6.106;2023-03-22T13:56:06;98901.81;;;20.17;55.35
58690;BME280;44470;53.206;-6.106;2023-03-22T13:58:49;98887.34;;;20.21;55.67
58690;BME280;44470;53.206;-6.106;2023-03-22T14:01:16;98883.81;;;20.21;56.10
58690;BME280;44470;53.206;-6.106;2023-03-22T14:03:46;98882.94;;;20.20;55.69
58690;BME280;44470;53.206;-6.106;2023-03-22T14:08:40;98880.28;;;20.20;55.68
58690;BME280;44470;53.206;-6.106;2023-03-22T14:11:27;98884.63;;;20.23;55.86
58690;BME280;44470;53.206;-6.106;2023-03-22T14:13:59;98869.44;;;20.23;55.29
58690;BME280;44470;53.206;-6.106;2023-03-22T14:16:35;98867.66;;;20.24;55.71
58690;BME280;44470;53.206;-6.106;2023-03-22T14:19:04;98862.31;;;20.24;55.15
58690;BME280;44470;53.206;-6.106;2023-03-22T14:21:32;98853.50;;;20.22;55.37
58690;BME280;44470;53.206;-6.106;2023-03-22T14:23:58;98856.19;;;20.22;55.73
58690;BME280;44470;53.206;-6.106;2023-03-22T14:26:35;98850.72;;;20.23;55.40
58690;BME280;44470;53.206;-6.106;2023-03-22T14:29:09;98833.88;;;20.23;55.55
58690;BME280;44470;53.206;-6.106;2023-03-22T14:31:34;98814.22;;;20.24;55.55
58690;BME280;44470;53.206;-6.106;2023-03-22T14:34:11;98816.94;;;20.22;55.43
58690;BME280;44470;53.206;-6.106;2023-03-22T14:36:39;98805.31;;;20.23;55.01
58690;BME280;44470;53.206;-6.106;2023-03-22T14:39:10;98788.28;;;20.26;55.19
58690;BME280;44470;53.206;-6.106;2023-03-22T14:41:37;98798.03;;;20.27;55.42